createdAt,value
2019-04-30T00:03:02.253Z,12.76
2019-04-30T00:07:17.472Z,12.54
2019-04-30T00:11:20.664Z,12.54
2019-04-30T00:15:29.298Z,12.48
2019-04-30T00:19:36.903Z,12.28
2019-04-30T00:23:45.932Z,12.21
2019-04-30T00:27:55.821Z,12.42
2019-04-30T00:32:07.912Z,12.31
2019-04-30T00:36:17.338Z,12.21
2019-04-30T00:40:26.672Z,12.47
2019-04-30T00:44:35.685Z,12.58
2019-04-30T00:48:43.478Z,12.35
2019-04-30T00:52:51.067Z,12.33
2019-04-30T00:57:04.527Z,12.26
2019-04-30T01:01:31.921Z,12.39
2019-04-30T01:05:46.475Z,12.54
2019-04-30T01:09:50.410Z,12.26
2019-04-30T01:13:59.106Z,12.13
2019-04-30T01:18:06.796Z,12.07
2019-04-30T01:22:21.072Z,11.90
2019-04-30T01:26:27.701Z,12.02
2019-04-30T01:30:34.878Z,12.05
2019-04-30T01:34:44.128Z,12.02
2019-04-30T01:38:53.139Z,12.22
2019-04-30T01:43:01.017Z,12.11
2019-04-30T01:47:09.598Z,11.98
2019-04-30T01:51:21.635Z,12.02
2019-04-30T01:55:41.490Z,11.73
2019-04-30T02:00:09.754Z,11.96
2019-04-30T02:04:19.491Z,11.87
2019-04-30T02:08:27.139Z,11.95
2019-04-30T02:12:35.131Z,11.98
2019-04-30T02:16:43.177Z,11.93
2019-04-30T02:20:51.450Z,12.14
2019-04-30T02:24:59.714Z,12.12
2019-04-30T02:29:09.160Z,11.99
2019-04-30T02:33:19.897Z,11.96
2019-04-30T02:37:31.196Z,12.01
2019-04-30T02:41:41.343Z,12.13
2019-04-30T02:45:51.859Z,12.05
2019-04-30T02:50:14.043Z,11.94
2019-04-30T02:54:29.472Z,11.62
2019-04-30T02:58:37.272Z,11.47
2019-04-30T03:02:45.012Z,11.82
2019-04-30T03:06:52.697Z,11.62
2019-04-30T03:11:00.825Z,11.62
2019-04-30T03:15:09.976Z,11.71
2019-04-30T03:19:29.344Z,11.61
2019-04-30T03:23:39.160Z,11.66
2019-04-30T03:27:46.322Z,11.90
2019-04-30T03:31:54.918Z,11.86
2019-04-30T03:36:03.056Z,12.09
2019-04-30T03:40:13.304Z,12.26
2019-04-30T03:44:25.376Z,12.40
2019-04-30T03:48:30.557Z,12.44
2019-04-30T03:52:39.498Z,12.47
2019-04-30T03:56:50.251Z,12.51
2019-04-30T04:01:05.578Z,12.75
2019-04-30T04:05:32.408Z,12.86
2019-04-30T04:09:45.695Z,12.83
2019-04-30T04:13:53.453Z,13.01
2019-04-30T04:18:01.678Z,13.30
2019-04-30T04:22:12.221Z,13.56
2019-04-30T04:26:20.225Z,14.15
2019-04-30T04:30:29.805Z,14.41
2019-04-30T04:34:40.091Z,14.79
2019-04-30T04:38:50.413Z,14.81
2019-04-30T04:42:57.050Z,15.64
2019-04-30T04:47:05.145Z,15.54
2019-04-30T04:51:27.655Z,15.82
2019-04-30T04:55:22.512Z,16.09
2019-04-30T04:59:30.125Z,16.11
2019-04-30T05:03:40.022Z,16.63
2019-04-30T05:07:48.634Z,16.49
2019-04-30T05:11:56.410Z,16.48
2019-04-30T05:16:04.346Z,16.97
2019-04-30T05:20:12.449Z,16.64
2019-04-30T05:24:20.157Z,17.05
2019-04-30T05:28:29.971Z,16.72
2019-04-30T05:32:39.081Z,16.45
2019-04-30T05:36:48.850Z,16.61
2019-04-30T05:40:56.926Z,16.61
2019-04-30T05:45:05.156Z,17.65
2019-04-30T05:49:13.350Z,17.86
2019-04-30T05:53:21.367Z,17.79
2019-04-30T05:57:29.509Z,17.26
2019-04-30T06:01:39.503Z,17.49
2019-04-30T06:05:49.169Z,18.29
2019-04-30T06:10:19.382Z,18.71
2019-04-30T06:14:48.030Z,19.16
2019-04-30T06:18:45.510Z,19.62
2019-04-30T06:22:53.823Z,19.78
2019-04-30T06:27:03.775Z,20.04
2019-04-30T06:31:12.050Z,19.46
2019-04-30T06:35:20.352Z,20.31
2019-04-30T06:39:28.843Z,20.61
2019-04-30T06:43:38.582Z,20.69
2019-04-30T06:47:48.949Z,20.17
2019-04-30T06:51:58.775Z,19.94
2019-04-30T06:56:06.445Z,20.55
2019-04-30T07:00:14.957Z,20.10
2019-04-30T07:04:22.889Z,20.71
2019-04-30T07:08:57.035Z,21.37
2019-04-30T07:13:22.203Z,21.02
2019-04-30T07:17:30.148Z,21.26
2019-04-30T07:21:42.914Z,21.73
2019-04-30T07:25:49.358Z,22.19
2019-04-30T07:29:59.569Z,21.83
2019-04-30T07:34:09.114Z,21.89
2019-04-30T07:38:19.224Z,22.49
2019-04-30T07:42:26.641Z,22.26
2019-04-30T07:46:35.212Z,23.09
2019-04-30T07:50:44.407Z,22.88
2019-04-30T07:54:52.446Z,23.09
2019-04-30T07:59:00.792Z,23.19
2019-04-30T08:03:34.215Z,23.13
2019-04-30T08:07:42.764Z,23.73
2019-04-30T08:11:50.705Z,23.54
2019-04-30T08:15:59.638Z,23.18
2019-04-30T08:20:08.739Z,24.42
2019-04-30T08:24:16.783Z,24.49
2019-04-30T08:28:25.115Z,24.11
2019-04-30T08:32:32.868Z,24.69
2019-04-30T08:36:40.983Z,24.78
2019-04-30T08:40:56.178Z,24.50
2019-04-30T08:44:59.255Z,24.99
2019-04-30T08:49:09.213Z,24.85
2019-04-30T08:53:27.559Z,25.00
2019-04-30T08:57:26.121Z,26.19
2019-04-30T09:01:34.135Z,25.73
2019-04-30T09:06:00.189Z,25.74
2019-04-30T09:10:09.255Z,27.07
2019-04-30T09:14:18.703Z,26.10
2019-04-30T09:18:29.170Z,26.10
2019-04-30T09:22:39.359Z,26.83
2019-04-30T09:26:49.145Z,26.83
2019-04-30T09:30:58.630Z,26.63
2019-04-30T09:35:06.722Z,28.48
2019-04-30T09:39:14.836Z,27.41
2019-04-30T09:43:23.055Z,27.41
2019-04-30T09:47:30.966Z,27.18
2019-04-30T09:51:39.714Z,27.18
2019-04-30T09:55:49.597Z,27.68
2019-04-30T09:59:57.678Z,27.51
2019-04-30T10:04:06.361Z,28.50
2019-04-30T10:08:14.729Z,27.72
2019-04-30T10:12:23.194Z,28.23
2019-04-30T10:16:36.879Z,29.34
2019-04-30T10:20:45.572Z,27.48
2019-04-30T10:24:53.540Z,27.07
2019-04-30T10:29:02.590Z,27.58
2019-04-30T10:33:10.325Z,27.40
2019-04-30T10:37:18.974Z,27.40
2019-04-30T10:41:28.814Z,27.51
2019-04-30T10:45:38.824Z,27.96
2019-04-30T10:49:48.666Z,27.96
2019-04-30T10:53:59.181Z,26.64
2019-04-30T12:41:14.351Z,26.37
2019-04-30T12:45:22.263Z,26.18
2019-04-30T12:49:47.956Z,26.18
2019-04-30T12:53:59.777Z,26.59
2019-04-30T12:58:09.681Z,26.23
2019-04-30T13:02:19.139Z,25.83
2019-04-30T13:06:28.019Z,26.02
2019-04-30T13:10:37.078Z,26.02
2019-04-30T13:14:51.717Z,25.83
2019-04-30T13:18:55.259Z,24.64
2019-04-30T13:23:03.467Z,24.80
2019-04-30T13:27:11.172Z,24.93
2019-04-30T13:31:19.504Z,24.67
2019-04-30T13:35:28.990Z,24.42
2019-04-30T13:39:52.194Z,24.09
2019-04-30T13:44:06.087Z,23.94
2019-04-30T13:48:14.800Z,23.82
2019-04-30T13:52:23.233Z,23.92
2019-04-30T13:56:30.925Z,24.13
2019-04-30T14:00:39.756Z,24.19
2019-04-30T14:04:59.694Z,24.28
2019-04-30T14:09:17.733Z,24.28
2019-04-30T14:13:27.112Z,24.32
2019-04-30T14:17:34.955Z,24.84
2019-04-30T14:21:42.872Z,25.15
2019-04-30T14:25:56.651Z,25.80
2019-04-30T14:30:00.121Z,25.79
2019-04-30T14:34:09.980Z,25.64
2019-04-30T14:38:19.025Z,25.40
2019-04-30T14:42:27.624Z,25.40
2019-04-30T14:46:54.354Z,25.40
2019-04-30T14:51:03.222Z,25.28
2019-04-30T14:55:29.509Z,25.20
2019-04-30T15:00:02.574Z,25.15
2019-04-30T15:04:12.419Z,25.10
2019-04-30T15:08:20.271Z,24.73
2019-04-30T15:12:28.068Z,24.45
2019-04-30T15:16:35.988Z,24.36
2019-04-30T15:20:43.994Z,24.40
2019-04-30T15:24:51.906Z,24.30
2019-04-30T15:29:00.120Z,24.11
2019-04-30T15:33:31.276Z,23.98
2019-04-30T15:37:41.253Z,23.78
2019-04-30T15:41:48.933Z,23.67
2019-04-30T15:45:57.377Z,23.41
2019-04-30T15:50:05.681Z,23.21
2019-04-30T15:54:13.719Z,23.13
2019-04-30T15:58:25.425Z,22.45
2019-04-30T16:02:56.550Z,21.67
2019-04-30T16:07:01.921Z,20.70
2019-04-30T16:11:31.802Z,20.28
2019-04-30T16:15:39.574Z,20.10
2019-04-30T16:19:47.458Z,19.72
2019-04-30T16:23:55.116Z,19.48
2019-04-30T16:28:02.992Z,19.01
2019-04-30T16:32:11.004Z,18.88
2019-04-30T16:36:19.314Z,18.73
2019-04-30T16:40:29.000Z,18.56
2019-04-30T16:44:36.778Z,18.56
2019-04-30T16:48:45.006Z,18.51
2019-04-30T16:52:53.228Z,18.49
2019-04-30T16:57:04.203Z,18.29
2019-04-30T17:01:12.446Z,18.32
2019-04-30T17:05:39.577Z,18.12
2019-04-30T17:09:59.074Z,18.30
2019-04-30T17:14:10.135Z,18.22
2019-04-30T17:18:19.088Z,18.09
2019-04-30T17:22:26.798Z,17.84
2019-04-30T17:26:34.719Z,16.98
2019-04-30T17:30:42.507Z,17.29
2019-04-30T17:34:50.247Z,16.85
2019-04-30T17:38:58.256Z,16.65
2019-04-30T17:43:06.266Z,16.63
2019-04-30T17:47:13.976Z,16.52
2019-04-30T17:51:22.880Z,16.21
2019-04-30T17:55:30.754Z,16.73
2019-04-30T17:59:38.623Z,16.52
2019-04-30T18:03:48.704Z,16.70
2019-04-30T18:07:56.219Z,16.32
2019-04-30T18:12:04.054Z,16.24
2019-04-30T18:16:12.021Z,15.80
2019-04-30T18:20:32.295Z,16.15
2019-04-30T18:24:51.905Z,15.93
2019-04-30T18:28:59.526Z,15.55
2019-04-30T18:33:09.900Z,15.64
2019-04-30T18:37:18.919Z,15.54
2019-04-30T18:41:26.634Z,15.38
2019-04-30T18:45:34.830Z,15.25
2019-04-30T18:49:42.553Z,15.20
2019-04-30T18:53:50.476Z,15.25
2019-04-30T18:58:01.248Z,14.99
2019-04-30T19:02:10.758Z,15.01
2019-04-30T19:06:26.048Z,15.11
2019-04-30T19:10:50.843Z,15.16
2019-04-30T19:15:09.066Z,15.13
2019-04-30T19:19:26.202Z,15.19
2019-04-30T19:23:34.192Z,15.14
2019-04-30T19:27:41.892Z,15.11
2019-04-30T19:31:50.038Z,14.97
2019-04-30T19:35:58.595Z,14.99
2019-04-30T19:40:08.917Z,14.91
2019-04-30T19:44:20.661Z,14.82
2019-04-30T19:48:28.041Z,14.96
2019-04-30T19:52:36.534Z,14.70
2019-04-30T19:56:44.683Z,14.94
2019-04-30T20:00:52.780Z,15.04
2019-04-30T20:05:01.258Z,15.00
2019-04-30T20:09:10.945Z,14.57
2019-04-30T20:13:32.909Z,14.75
2019-04-30T20:17:29.641Z,14.77
2019-04-30T20:21:48.080Z,14.55
2019-04-30T20:25:47.102Z,14.60
2019-04-30T20:29:56.145Z,14.72
2019-04-30T20:34:04.400Z,14.73
2019-04-30T20:38:33.868Z,14.65
2019-04-30T20:42:41.920Z,14.31
2019-04-30T20:46:49.824Z,14.50
2019-04-30T20:51:01.123Z,14.11
2019-04-30T20:55:07.373Z,14.23
2019-04-30T20:59:15.927Z,14.53
2019-04-30T21:03:23.606Z,14.48
2019-04-30T21:07:31.831Z,15.04
2019-04-30T21:11:40.479Z,14.55
2019-04-30T21:15:49.618Z,14.61
2019-04-30T21:19:58.862Z,14.60
2019-04-30T21:24:07.172Z,14.62
2019-04-30T21:28:14.774Z,14.16
2019-04-30T21:32:41.076Z,14.05
2019-04-30T21:36:49.564Z,14.04
2019-04-30T21:40:58.804Z,14.49
2019-04-30T21:45:07.342Z,14.49
2019-04-30T21:49:15.010Z,13.89
2019-04-30T21:53:22.830Z,13.94
2019-04-30T21:57:30.432Z,14.46
2019-04-30T22:01:38.303Z,13.93
2019-04-30T22:05:46.529Z,13.89
2019-04-30T22:09:54.270Z,13.82
2019-04-30T22:14:02.077Z,13.91
2019-04-30T22:18:10.797Z,14.21
2019-04-30T22:22:19.256Z,14.10
2019-04-30T22:26:27.258Z,14.03
2019-04-30T22:30:35.154Z,13.60
2019-04-30T22:34:43.052Z,13.46
2019-04-30T22:39:20.017Z,13.40
2019-04-30T22:43:27.888Z,13.98
2019-04-30T22:47:36.189Z,13.48
2019-04-30T22:51:45.112Z,13.63
2019-04-30T22:55:53.160Z,13.65
2019-04-30T23:00:00.959Z,13.42
2019-04-30T23:04:14.845Z,13.30
2019-04-30T23:08:22.418Z,13.15
2019-04-30T23:12:30.068Z,13.14
2019-04-30T23:16:38.463Z,12.99
2019-04-30T23:20:46.271Z,12.99
2019-04-30T23:24:54.068Z,13.06
2019-04-30T23:29:01.995Z,13.12
2019-04-30T23:33:09.600Z,13.37
2019-04-30T23:37:17.618Z,12.94
2019-04-30T23:41:25.352Z,13.04
2019-04-30T23:45:33.227Z,13.01
2019-04-30T23:49:41.250Z,13.18
2019-04-30T23:53:49.049Z,13.15
2019-04-30T23:57:56.866Z,13.08
